sensor_id;sensor_type;location;lat;lon;timestamp;pressure;altitude;pressure_sealevel;temperature;humidity
53651;BME280;39552;45.776;15.892;2022-10-16T00:00:27;100849.59;;;12.19;100.00
53651;BME280;39552;45.776;15.892;2022-10-16T00:03:10;100784.56;;;12.02;100.00
53651;BME280;39552;45.776;15.892;2022-10-16T00:06:08;100774.41;;;11.89;100.00
53651;BME280;39552;45.776;15.892;2022-10-16T00:08:40;100797.00;;;12.06;100.00
53651;BME280;39552;45.776;15.892;2022-10-16T00:11:11;100790.66;;;12.05;100.00
53651;BME280;39552;45.776;15.892;2022-10-16T00:13:47;100769.34;;;11.99;100.00
53651;BME280;39552;45.776;15.892;2022-10-16T00:16:23;100787.88;;;12.07;100.00
53651;BME280;39552;45.776;15.892;2022-10-16T00:19:06;100795.59;;;11.98;100.00
53651;BME280;39552;45.776;15.892;2022-10-16T00:21:33;100745.25;;;11.77;100.00
53651;BME280;39552;45.776;15.892;2022-10-16T00:24:05;100754.06;;;11.65;100.00
53651;BME280;39552;45.776;15.892;2022-10-16T00:26:34;100791.50;;;11.74;100.00
53651;BME280;39552;45.776;15.892;2022-10-16T00:29:02;100817.47;;;12.11;100.00
53651;BME280;39552;45.776;15.892;2022-10-16T00:31:29;100750.25;;;11.69;100.00
53651;BME280;39552;45.776;15.892;2022-10-16T00:33:58;100786.97;;;11.74;100.00
53651;BME280;39552;45.776;15.892;2022-10-16T00:36:28;100783.22;;;11.77;100.00
53651;BME280;39552;45.776;15.892;2022-10-16T00:38:56;100800.97;;;11.83;100.00
53651;BME280;39552;45.776;15.892;2022-10-16T00:41:31;100785.72;;;11.80;100.00
53651;BME280;39552;45.776;15.892;2022-10-16T00:44:40;100763.59;;;11.40;100.00
53651;BME280;39552;45.776;15.892;2022-10-16T00:46:58;100842.78;;;11.78;100.00
53651;BME280;39552;45.776;15.892;2022-10-16T00:49:27;100802.72;;;11.34;100.00
53651;BME280;39552;45.776;15.892;2022-10-16T00:51:54;100812.34;;;11.40;100.00
53651;BME280;39552;45.776;15.892;2022-10-16T00:54:23;100803.78;;;11.14;100.00
53651;BME280;39552;45.776;15.892;2022-10-16T00:57:01;100765.56;;;11.20;100.00
53651;BME280;39552;45.776;15.892;2022-10-16T00:59:48;100819.66;;;11.55;100.00
53651;BME280;39552;45.776;15.892;2022-10-16T01:02:26;100854.63;;;11.76;100.00
53651;BME280;39552;45.776;15.892;2022-10-16T01:04:57;100814.66;;;11.64;100.00
53651;BME280;39552;45.776;15.892;2022-10-16T01:07:35;100868.81;;;11.81;100.00
53651;BME280;39552;45.776;15.892;2022-10-16T01:10:20;100816.94;;;11.55;100.00
53651;BME280;39552;45.776;15.892;2022-10-16T01:13:00;100821.66;;;11.52;100.00
53651;BME280;39552;45.776;15.892;2022-10-16T01:15:37;100788.84;;;11.40;100.00
53651;BME280;39552;45.776;15.892;2022-10-16T01:18:38;100772.63;;;11.23;100.00
53651;BME280;39552;45.776;15.892;2022-10-16T01:21:09;100831.00;;;11.62;100.00
53651;BME280;39552;45.776;15.892;2022-10-16T01:23:58;100825.25;;;11.68;100.00
53651;BME280;39552;45.776;15.892;2022-10-16T01:26:39;100829.47;;;11.74;100.00
53651;BME280;39552;45.776;15.892;2022-10-16T01:29:34;100775.16;;;11.59;100.00
53651;BME280;39552;45.776;15.892;2022-10-16T01:32:15;100799.63;;;11.74;100.00
53651;BME280;39552;45.776;15.892;2022-10-16T01:34:55;100811.38;;;11.74;100.00
53651;BME280;39552;45.776;15.892;2022-10-16T01:37:36;100807.81;;;11.56;100.00
53651;BME280;39552;45.776;15.892;2022-10-16T01:40:09;100800.63;;;11.39;100.00
53651;BME280;39552;45.776;15.892;2022-10-16T01:42:50;100811.72;;;11.35;100.00
53651;BME280;39552;45.776;15.892;2022-10-16T01:45:33;100859.19;;;11.42;100.00
53651;BME280;39552;45.776;15.892;2022-10-16T01:48:20;100845.41;;;11.29;100.00
53651;BME280;39552;45.776;15.892;2022-10-16T01:51:00;100868.22;;;11.25;100.00
53651;BME280;39552;45.776;15.892;2022-10-16T01:53:38;100785.81;;;10.78;100.00
53651;BME280;39552;45.776;15.892;2022-10-16T01:56:18;100790.25;;;10.62;100.00
53651;BME280;39552;45.776;15.892;2022-10-16T01:58:56;100836.53;;;10.92;100.00
53651;BME280;39552;45.776;15.892;2022-10-16T02:01:42;100850.78;;;11.13;100.00
53651;BME280;39552;45.776;15.892;2022-10-16T02:04:18;100854.28;;;11.15;100.00
53651;BME280;39552;45.776;15.892;2022-10-16T02:06:52;100879.44;;;11.35;100.00
53651;BME280;39552;45.776;15.892;2022-10-16T02:09:24;100823.13;;;11.07;100.00
53651;BME280;39552;45.776;15.892;2022-10-16T02:12:13;100813.19;;;11.07;100.00
53651;BME280;39552;45.776;15.892;2022-10-16T02:14:54;100873.56;;;11.27;100.00
53651;BME280;39552;45.776;15.892;2022-10-16T02:17:29;100802.44;;;10.88;100.00
53651;BME280;39552;45.776;15.892;2022-10-16T02:20:04;100877.38;;;11.23;100.00
53651;BME280;39552;45.776;15.892;2022-10-16T02:22:43;100891.25;;;11.16;100.00
53651;BME280;39552;45.776;15.892;2022-10-16T02:25:17;100801.72;;;10.67;100.00
53651;BME280;39552;45.776;15.892;2022-10-16T02:27:59;100797.50;;;10.61;100.00
53651;BME280;39552;45.776;15.892;2022-10-16T02:30:36;100802.13;;;10.59;100.00
53651;BME280;39552;45.776;15.892;2022-10-16T02:36:14;100844.56;;;10.76;100.00
53651;BME280;39552;45.776;15.892;2022-10-16T02:39:08;100895.16;;;10.93;100.00
53651;BME280;39552;45.776;15.892;2022-10-16T02:41:38;100848.25;;;10.56;100.00
53651;BME280;39552;45.776;15.892;2022-10-16T02:44:26;100851.22;;;10.69;100.00
53651;BME280;39552;45.776;15.892;2022-10-16T02:47:01;100886.84;;;10.96;100.00
53651;BME280;39552;45.776;15.892;2022-10-16T02:49:45;100884.38;;;10.92;100.00
53651;BME280;39552;45.776;15.892;2022-10-16T02:52:15;100821.59;;;10.49;100.00
53651;BME280;39552;45.776;15.892;2022-10-16T02:54:47;100849.50;;;10.68;100.00
53651;BME280;39552;45.776;15.892;2022-10-16T02:57:17;100896.03;;;11.11;100.00
53651;BME280;39552;45.776;15.892;2022-10-16T02:59:54;100845.38;;;10.78;100.00
53651;BME280;39552;45.776;15.892;2022-10-16T03:02:29;100859.38;;;10.87;100.00
53651;BME280;39552;45.776;15.892;2022-10-16T03:05:14;100844.38;;;10.79;100.00
53651;BME280;39552;45.776;15.892;2022-10-16T03:07:45;100797.19;;;10.68;100.00
53651;BME280;39552;45.776;15.892;2022-10-16T03:10:16;100849.34;;;11.06;100.00
53651;BME280;39552;45.776;15.892;2022-10-16T03:12:43;100811.50;;;10.70;100.00
53651;BME280;39552;45.776;15.892;2022-10-16T03:15:13;100894.75;;;11.18;100.00
53651;BME280;39552;45.776;15.892;2022-10-16T03:17:49;100820.41;;;10.54;100.00
53651;BME280;39552;45.776;15.892;2022-10-16T03:20:24;100889.81;;;11.09;100.00
53651;BME280;39552;45.776;15.892;2022-10-16T03:23:01;100876.59;;;10.86;100.00
53651;BME280;39552;45.776;15.892;2022-10-16T03:25:38;100870.84;;;10.74;100.00
53651;BME280;39552;45.776;15.892;2022-10-16T03:28:14;100904.53;;;11.04;100.00
53651;BME280;39552;45.776;15.892;2022-10-16T03:30:43;100907.06;;;10.89;100.00
53651;BME280;39552;45.776;15.892;2022-10-16T03:33:28;100912.88;;;10.99;100.00
53651;BME280;39552;45.776;15.892;2022-10-16T03:35:58;100864.72;;;10.88;100.00
53651;BME280;39552;45.776;15.892;2022-10-16T03:38:25;100868.22;;;10.90;100.00
53651;BME280;39552;45.776;15.892;2022-10-16T03:40:52;100846.41;;;10.76;100.00
53651;BME280;39552;45.776;15.892;2022-10-16T03:43:31;100839.75;;;10.64;100.00
53651;BME280;39552;45.776;15.892;2022-10-16T03:46:09;100855.38;;;10.76;100.00
53651;BME280;39552;45.776;15.892;2022-10-16T03:48:41;100877.38;;;10.88;100.00
53651;BME280;39552;45.776;15.892;2022-10-16T03:51:29;100932.16;;;11.10;100.00
53651;BME280;39552;45.776;15.892;2022-10-16T03:53:56;100856.50;;;10.72;100.00
53651;BME280;39552;45.776;15.892;2022-10-16T03:56:42;100902.59;;;10.71;100.00
53651;BME280;39552;45.776;15.892;2022-10-16T03:59:12;100856.38;;;10.56;100.00
53651;BME280;39552;45.776;15.892;2022-10-16T04:01:42;100858.59;;;10.48;100.00
53651;BME280;39552;45.776;15.892;2022-10-16T04:04:22;100880.66;;;10.58;100.00
53651;BME280;39552;45.776;15.892;2022-10-16T04:07:12;100880.16;;;10.50;100.00
53651;BME280;39552;45.776;15.892;2022-10-16T04:09:45;100908.00;;;10.71;100.00
53651;BME280;39552;45.776;15.892;2022-10-16T04:12:11;100895.50;;;10.68;100.00
53651;BME280;39552;45.776;15.892;2022-10-16T04:14:47;100944.03;;;11.08;100.00
53651;BME280;39552;45.776;15.892;2022-10-16T04:17:22;100866.50;;;10.53;100.00
53651;BME280;39552;45.776;15.892;2022-10-16T04:19:57;100863.44;;;10.41;100.00
53651;BME280;39552;45.776;15.892;2022-10-16T04:22:53;100944.28;;;11.03;100.00
53651;BME280;39552;45.776;15.892;2022-10-16T04:25:31;100857.31;;;10.38;100.00
53651;BME280;39552;45.776;15.892;2022-10-16T04:28:05;100875.50;;;10.34;100.00
53651;BME280;39552;45.776;15.892;2022-10-16T04:30:34;100868.84;;;10.22;100.00
53651;BME280;39552;45.776;15.892;2022-10-16T04:33:22;100932.50;;;10.68;100.00
53651;BME280;39552;45.776;15.892;2022-10-16T04:35:58;100960.59;;;11.01;100.00
53651;BME280;39552;45.776;15.892;2022-10-16T04:38:34;100963.34;;;10.82;100.00
53651;BME280;39552;45.776;15.892;2022-10-16T04:41:04;100914.59;;;10.46;100.00
53651;BME280;39552;45.776;15.892;2022-10-16T04:43:44;100920.13;;;10.62;100.00
53651;BME280;39552;45.776;15.892;2022-10-16T04:46:15;100915.16;;;10.72;100.00
53651;BME280;39552;45.776;15.892;2022-10-16T04:48:54;100918.97;;;10.68;100.00
53651;BME280;39552;45.776;15.892;2022-10-16T04:51:24;100937.53;;;10.75;100.00
53651;BME280;39552;45.776;15.892;2022-10-16T04:53:59;100921.34;;;10.37;100.00
53651;BME280;39552;45.776;15.892;2022-10-16T04:56:42;100879.88;;;10.18;100.00
53651;BME280;39552;45.776;15.892;2022-10-16T04:59:24;100929.81;;;10.49;100.00
53651;BME280;39552;45.776;15.892;2022-10-16T05:02:01;100890.72;;;10.18;100.00
53651;BME280;39552;45.776;15.892;2022-10-16T05:04:35;100939.19;;;10.41;100.00
53651;BME280;39552;45.776;15.892;2022-10-16T05:07:07;100888.44;;;10.09;100.00
53651;BME280;39552;45.776;15.892;2022-10-16T05:09:47;100925.56;;;10.24;100.00
53651;BME280;39552;45.776;15.892;2022-10-16T05:12:24;100933.06;;;10.17;100.00
53651;BME280;39552;45.776;15.892;2022-10-16T05:14:58;100927.72;;;10.16;100.00
53651;BME280;39552;45.776;15.892;2022-10-16T05:17:29;100947.94;;;10.47;100.00
53651;BME280;39552;45.776;15.892;2022-10-16T05:20:03;100981.19;;;10.68;100.00
53651;BME280;39552;45.776;15.892;2022-10-16T05:22:39;100906.28;;;10.32;100.00
53651;BME280;39552;45.776;15.892;2022-10-16T05:25:14;100944.28;;;10.48;100.00
53651;BME280;39552;45.776;15.892;2022-10-16T05:27:52;100961.81;;;10.58;100.00
53651;BME280;39552;45.776;15.892;2022-10-16T05:30:25;100925.56;;;10.24;100.00
53651;BME280;39552;45.776;15.892;2022-10-16T05:33:00;100949.28;;;10.57;100.00
53651;BME280;39552;45.776;15.892;2022-10-16T05:35:38;100939.44;;;10.73;100.00
53651;BME280;39552;45.776;15.892;2022-10-16T05:38:13;100949.03;;;10.98;100.00
53651;BME280;39552;45.776;15.892;2022-10-16T05:40:56;100915.88;;;10.75;100.00
53651;BME280;39552;45.776;15.892;2022-10-16T05:43:33;100999.16;;;11.24;100.00
53651;BME280;39552;45.776;15.892;2022-10-16T05:46:14;101010.50;;;11.15;100.00
53651;BME280;39552;45.776;15.892;2022-10-16T05:48:47;100957.00;;;10.84;100.00
53651;BME280;39552;45.776;15.892;2022-10-16T05:51:16;100935.72;;;10.76;100.00
53651;BME280;39552;45.776;15.892;2022-10-16T05:53:52;101014.22;;;11.12;100.00
53651;BME280;39552;45.776;15.892;2022-10-16T05:56:27;100957.13;;;10.80;100.00
53651;BME280;39552;45.776;15.892;2022-10-16T05:59:02;101010.41;;;11.16;100.00
53651;BME280;39552;45.776;15.892;2022-10-16T06:01:56;101000.97;;;11.06;100.00
53651;BME280;39552;45.776;15.892;2022-10-16T06:04:26;100993.66;;;11.08;100.00
53651;BME280;39552;45.776;15.892;2022-10-16T06:07:01;101010.63;;;11.12;100.00
53651;BME280;39552;45.776;15.892;2022-10-16T06:09:33;100994.38;;;11.12;100.00
53651;BME280;39552;45.776;15.892;2022-10-16T06:12:26;100960.53;;;11.03;100.00
53651;BME280;39552;45.776;15.892;2022-10-16T06:15:06;101034.19;;;11.64;100.00
53651;BME280;39552;45.776;15.892;2022-10-16T06:17:36;101006.44;;;11.41;100.00
53651;BME280;39552;45.776;15.892;2022-10-16T06:20:06;101029.50;;;11.50;100.00
53651;BME280;39552;45.776;15.892;2022-10-16T06:22:39;101012.19;;;11.35;100.00
53651;BME280;39552;45.776;15.892;2022-10-16T06:25:16;101008.69;;;11.33;100.00
53651;BME280;39552;45.776;15.892;2022-10-16T06:27:58;101026.53;;;11.37;100.00
53651;BME280;39552;45.776;15.892;2022-10-16T06:30:39;101066.84;;;11.43;100.00
53651;BME280;39552;45.776;15.892;2022-10-16T06:33:11;101062.91;;;11.68;100.00
53651;BME280;39552;45.776;15.892;2022-10-16T06:35:48;101022.97;;;11.54;100.00
53651;BME280;39552;45.776;15.892;2022-10-16T06:38:21;101057.09;;;11.75;100.00
53651;BME280;39552;45.776;15.892;2022-10-16T06:40:57;101071.28;;;11.80;100.00
53651;BME280;39552;45.776;15.892;2022-10-16T06:43:33;101027.81;;;11.47;100.00
53651;BME280;39552;45.776;15.892;2022-10-16T06:46:10;101008.22;;;11.42;100.00
53651;BME280;39552;45.776;15.892;2022-10-16T06:48:50;101030.38;;;11.68;100.00
53651;BME280;39552;45.776;15.892;2022-10-16T06:51:29;100996.91;;;11.51;100.00
53651;BME280;39552;45.776;15.892;2022-10-16T06:53:59;101089.72;;;12.09;100.00
53651;BME280;39552;45.776;15.892;2022-10-16T06:56:40;101019.13;;;11.75;100.00
53651;BME280;39552;45.776;15.892;2022-10-16T06:59:27;101090.44;;;12.12;100.00
53651;BME280;39552;45.776;15.892;2022-10-16T07:02:08;101034.84;;;11.51;100.00
53651;BME280;39552;45.776;15.892;2022-10-16T07:04:43;101077.44;;;11.67;100.00
53651;BME280;39552;45.776;15.892;2022-10-16T07:07:15;101069.56;;;11.97;100.00
53651;BME280;39552;45.776;15.892;2022-10-16T07:09:51;101028.72;;;11.83;100.00
53651;BME280;39552;45.776;15.892;2022-10-16T07:12:32;101118.69;;;12.26;100.00
53651;BME280;39552;45.776;15.892;2022-10-16T07:15:18;101096.72;;;12.30;100.00
53651;BME280;39552;45.776;15.892;2022-10-16T07:17:58;101047.13;;;11.93;100.00
53651;BME280;39552;45.776;15.892;2022-10-16T07:20:34;101081.50;;;12.10;100.00
53651;BME280;39552;45.776;15.892;2022-10-16T07:23:04;101110.78;;;12.38;100.00
53651;BME280;39552;45.776;15.892;2022-10-16T07:25:34;101047.25;;;11.92;100.00
53651;BME280;39552;45.776;15.892;2022-10-16T07:28:10;101038.69;;;11.99;100.00
53651;BME280;39552;45.776;15.892;2022-10-16T07:30:46;101092.31;;;12.45;100.00
53651;BME280;39552;45.776;15.892;2022-10-16T07:33:20;101100.00;;;12.37;100.00
53651;BME280;39552;45.776;15.892;2022-10-16T07:35:57;101142.28;;;12.41;100.00
53651;BME280;39552;45.776;15.892;2022-10-16T07:38:30;101109.59;;;12.09;100.00
53651;BME280;39552;45.776;15.892;2022-10-16T07:41:13;101077.72;;;12.30;100.00
53651;BME280;39552;45.776;15.892;2022-10-16T07:43:45;101103.00;;;12.48;100.00
53651;BME280;39552;45.776;15.892;2022-10-16T07:46:13;101085.56;;;12.36;100.00
53651;BME280;39552;45.776;15.892;2022-10-16T07:48:45;101076.47;;;12.20;100.00
53651;BME280;39552;45.776;15.892;2022-10-16T07:51:26;101101.81;;;12.54;100.00
53651;BME280;39552;45.776;15.892;2022-10-16T07:53:55;101145.50;;;12.83;100.00
53651;BME280;39552;45.776;15.892;2022-10-16T07:56:48;101105.88;;;12.78;100.00
53651;BME280;39552;45.776;15.892;2022-10-16T07:59:29;101099.38;;;12.65;100.00
53651;BME280;39552;45.776;15.892;2022-10-16T08:02:09;101096.47;;;12.68;100.00
53651;BME280;39552;45.776;15.892;2022-10-16T08:04:39;101157.75;;;12.90;100.00
53651;BME280;39552;45.776;15.892;2022-10-16T08:07:08;101134.03;;;12.93;100.00
53651;BME280;39552;45.776;15.892;2022-10-16T08:09:34;101138.16;;;13.01;100.00
53651;BME280;39552;45.776;15.892;2022-10-16T08:12:01;101119.31;;;12.97;100.00
53651;BME280;39552;45.776;15.892;2022-10-16T08:14:28;101108.44;;;12.97;100.00
53651;BME280;39552;45.776;15.892;2022-10-16T08:19:49;101140.31;;;13.43;100.00
53651;BME280;39552;45.776;15.892;2022-10-16T08:22:18;101109.34;;;13.14;100.00
53651;BME280;39552;45.776;15.892;2022-10-16T08:24:45;101086.34;;;13.04;100.00
53651;BME280;39552;45.776;15.892;2022-10-16T08:27:13;101162.22;;;13.40;100.00
53651;BME280;39552;45.776;15.892;2022-10-16T08:29:49;101080.41;;;13.13;100.00
53651;BME280;39552;45.776;15.892;2022-10-16T08:32:25;101165.66;;;13.44;100.00
53651;BME280;39552;45.776;15.892;2022-10-16T08:34:59;101126.38;;;13.33;100.00
53651;BME280;39552;45.776;15.892;2022-10-16T08:37:46;101120.88;;;13.35;100.00
53651;BME280;39552;45.776;15.892;2022-10-16T08:40:21;101167.50;;;13.59;100.00
53651;BME280;39552;45.776;15.892;2022-10-16T08:48:29;101145.50;;;13.64;100.00
53651;BME280;39552;45.776;15.892;2022-10-16T08:51:38;101149.66;;;13.85;100.00
53651;BME280;39552;45.776;15.892;2022-10-16T08:54:31;101102.25;;;13.43;100.00
53651;BME280;39552;45.776;15.892;2022-10-16T08:57:07;101126.28;;;13.97;100.00
53651;BME280;39552;45.776;15.892;2022-10-16T08:59:48;101094.50;;;13.83;100.00
53651;BME280;39552;45.776;15.892;2022-10-16T09:02:23;101159.03;;;13.95;100.00
53651;BME280;39552;45.776;15.892;2022-10-16T09:05:02;101085.53;;;13.81;100.00
53651;BME280;39552;45.776;15.892;2022-10-16T09:07:48;101173.34;;;14.29;100.00
53651;BME280;39552;45.776;15.892;2022-10-16T09:10:31;101125.59;;;13.93;100.00
53651;BME280;39552;45.776;15.892;2022-10-16T09:13:18;101088.53;;;14.07;100.00
53651;BME280;39552;45.776;15.892;2022-10-16T09:16:19;101090.56;;;14.18;100.00
53651;BME280;39552;45.776;15.892;2022-10-16T09:18:58;101128.22;;;14.84;100.00
53651;BME280;39552;45.776;15.892;2022-10-16T09:21:40;101116.78;;;14.49;100.00
53651;BME280;39552;45.776;15.892;2022-10-16T09:24:24;101121.03;;;14.39;100.00
53651;BME280;39552;45.776;15.892;2022-10-16T09:26:57;101137.19;;;14.56;100.00
53651;BME280;39552;45.776;15.892;2022-10-16T09:29:24;101093.81;;;14.39;100.00
53651;BME280;39552;45.776;15.892;2022-10-16T09:32:08;101083.13;;;14.50;100.00
53651;BME280;39552;45.776;15.892;2022-10-16T09:37:44;101157.00;;;15.17;100.00
53651;BME280;39552;45.776;15.892;2022-10-16T09:43:34;101132.34;;;15.33;100.00
53651;BME280;39552;45.776;15.892;2022-10-16T09:46:19;101135.38;;;15.28;100.00
53651;BME280;39552;45.776;15.892;2022-10-16T09:48:56;101170.50;;;15.33;100.00
53651;BME280;39552;45.776;15.892;2022-10-16T09:51:34;101123.25;;;15.05;100.00
53651;BME280;39552;45.776;15.892;2022-10-16T09:54:13;101147.19;;;14.86;100.00
53651;BME280;39552;45.776;15.892;2022-10-16T09:56:42;101150.66;;;15.31;100.00
53651;BME280;39552;45.776;15.892;2022-10-16T09:59:14;101190.47;;;15.33;100.00
53651;BME280;39552;45.776;15.892;2022-10-16T10:02:15;101156.19;;;15.29;100.00
53651;BME280;39552;45.776;15.892;2022-10-16T10:04:50;101160.72;;;14.87;100.00
53651;BME280;39552;45.776;15.892;2022-10-16T10:07:27;101160.22;;;14.81;100.00
53651;BME280;39552;45.776;15.892;2022-10-16T10:10:00;101155.94;;;15.05;100.00
53651;BME280;39552;45.776;15.892;2022-10-16T10:12:40;101181.06;;;15.10;100.00
53651;BME280;39552;45.776;15.892;2022-10-16T10:15:14;101150.00;;;14.99;100.00
53651;BME280;39552;45.776;15.892;2022-10-16T10:17:46;101145.03;;;15.05;100.00
53651;BME280;39552;45.776;15.892;2022-10-16T10:20:22;101108.84;;;14.74;100.00
53651;BME280;39552;45.776;15.892;2022-10-16T10:22:50;101113.31;;;14.75;100.00
53651;BME280;39552;45.776;15.892;2022-10-16T10:25:55;101185.91;;;15.34;100.00
53651;BME280;39552;45.776;15.892;2022-10-16T10:29:26;101192.03;;;15.38;100.00
53651;BME280;39552;45.776;15.892;2022-10-16T10:35:50;101130.75;;;14.87;100.00
53651;BME280;39552;45.776;15.892;2022-10-16T10:38:46;101156.63;;;14.80;100.00
53651;BME280;39552;45.776;15.892;2022-10-16T10:44:52;101118.94;;;15.30;100.00
53651;BME280;39552;45.776;15.892;2022-10-16T10:47:47;101081.59;;;15.03;100.00
53651;BME280;39552;45.776;15.892;2022-10-16T10:50:46;101156.56;;;15.52;100.00
53651;BME280;39552;45.776;15.892;2022-10-16T10:53:28;101153.09;;;15.77;100.00
53651;BME280;39552;45.776;15.892;2022-10-16T10:56:40;101109.56;;;15.61;100.00
53651;BME280;39552;45.776;15.892;2022-10-16T11:09:07;101092.50;;;16.12;100.00
53651;BME280;39552;45.776;15.892;2022-10-16T11:12:18;101089.56;;;16.28;100.00
53651;BME280;39552;45.776;15.892;2022-10-16T11:18:06;101107.94;;;16.64;100.00
53651;BME280;39552;45.776;15.892;2022-10-16T11:21:00;101115.25;;;16.77;100.00
53651;BME280;39552;45.776;15.892;2022-10-16T11:36:08;101090.28;;;17.44;100.00
53651;BME280;39552;45.776;15.892;2022-10-16T11:39:03;101060.66;;;17.38;100.00
53651;BME280;39552;45.776;15.892;2022-10-16T11:41:53;101094.28;;;17.64;100.00
53651;BME280;39552;45.776;15.892;2022-10-16T11:45:07;101017.88;;;17.13;100.00
53651;BME280;39552;45.776;15.892;2022-10-16T11:50:25;101047.28;;;17.46;100.00
53651;BME280;39552;45.776;15.892;2022-10-16T11:53:52;101084.66;;;18.06;100.00
53651;BME280;39552;45.776;15.892;2022-10-16T11:56:41;101021.63;;;17.60;100.00
53651;BME280;39552;45.776;15.892;2022-10-16T11:59:33;101049.50;;;17.89;100.00
53651;BME280;39552;45.776;15.892;2022-10-16T12:02:45;101073.59;;;18.19;100.00
53651;BME280;39552;45.776;15.892;2022-10-16T12:05:55;101056.19;;;18.20;100.00
53651;BME280;39552;45.776;15.892;2022-10-16T12:09:10;101000.75;;;18.05;100.00
53651;BME280;39552;45.776;15.892;2022-10-16T12:18:41;101006.13;;;18.63;100.00
53651;BME280;39552;45.776;15.892;2022-10-16T12:21:39;101021.09;;;18.71;100.00
53651;BME280;39552;45.776;15.892;2022-10-16T12:34:50;100998.00;;;19.18;100.00
53651;BME280;39552;45.776;15.892;2022-10-16T12:40:53;101037.31;;;19.51;100.00
53651;BME280;39552;45.776;15.892;2022-10-16T12:44:05;101043.25;;;19.56;100.00
53651;BME280;39552;45.776;15.892;2022-10-16T13:22:15;100946.31;;;19.56;100.00
53651;BME280;39552;45.776;15.892;2022-10-16T13:25:45;101004.94;;;20.08;100.00
53651;BME280;39552;45.776;15.892;2022-10-16T13:32:06;100997.94;;;19.94;100.00
53651;BME280;39552;45.776;15.892;2022-10-16T13:35:22;100968.84;;;19.71;100.00
53651;BME280;39552;45.776;15.892;2022-10-16T13:38:29;101027.94;;;20.07;100.00
53651;BME280;39552;45.776;15.892;2022-10-16T13:41:20;101021.63;;;20.16;100.00
53651;BME280;39552;45.776;15.892;2022-10-16T13:45:00;100979.84;;;19.92;100.00
53651;BME280;39552;45.776;15.892;2022-10-16T13:47:44;100993.22;;;20.06;100.00
53651;BME280;39552;45.776;15.892;2022-10-16T13:50:57;100966.91;;;19.82;100.00
53651;BME280;39552;45.776;15.892;2022-10-16T13:57:39;100961.22;;;19.95;100.00
53651;BME280;39552;45.776;15.892;2022-10-16T14:00:54;101019.53;;;20.30;100.00
53651;BME280;39552;45.776;15.892;2022-10-16T14:07:04;101031.09;;;20.23;100.00
53651;BME280;39552;45.776;15.892;2022-10-16T14:10:00;100969.97;;;20.10;100.00
53651;BME280;39552;45.776;15.892;2022-10-16T14:13:17;100968.03;;;20.01;100.00
53651;BME280;39552;45.776;15.892;2022-10-16T14:15:56;100972.22;;;19.95;100.00
53651;BME280;39552;45.776;15.892;2022-10-16T14:19:01;100980.31;;;19.97;100.00
53651;BME280;39552;45.776;15.892;2022-10-16T14:22:20;101025.88;;;20.20;100.00
53651;BME280;39552;45.776;15.892;2022-10-16T14:28:36;101044.16;;;20.31;100.00
53651;BME280;39552;45.776;15.892;2022-10-16T14:31:41;100976.81;;;19.95;100.00
53651;BME280;39552;45.776;15.892;2022-10-16T14:38:24;100993.09;;;19.87;100.00
53651;BME280;39552;45.776;15.892;2022-10-16T14:41:14;101007.97;;;19.84;100.00
53651;BME280;39552;45.776;15.892;2022-10-16T14:53:17;100994.50;;;19.81;100.00
53651;BME280;39552;45.776;15.892;2022-10-16T14:56:15;100974.13;;;19.83;100.00
53651;BME280;39552;45.776;15.892;2022-10-16T14:58:50;101009.22;;;20.01;100.00
53651;BME280;39552;45.776;15.892;2022-10-16T15:01:23;100993.16;;;19.75;100.00
53651;BME280;39552;45.776;15.892;2022-10-16T15:03:50;100981.94;;;19.67;100.00
53651;BME280;39552;45.776;15.892;2022-10-16T15:06:25;101048.84;;;19.98;100.00
53651;BME280;39552;45.776;15.892;2022-10-16T15:08:52;101007.53;;;19.68;100.00
53651;BME280;39552;45.776;15.892;2022-10-16T15:11:30;100984.00;;;19.54;100.00
53651;BME280;39552;45.776;15.892;2022-10-16T15:14:22;101007.22;;;19.50;100.00
53651;BME280;39552;45.776;15.892;2022-10-16T15:17:25;101030.66;;;19.54;100.00
53651;BME280;39552;45.776;15.892;2022-10-16T15:20:13;101080.41;;;19.72;100.00
53651;BME280;39552;45.776;15.892;2022-10-16T15:23:16;101078.28;;;19.64;100.00
53651;BME280;39552;45.776;15.892;2022-10-16T15:25:48;101043.97;;;19.37;100.00
53651;BME280;39552;45.776;15.892;2022-10-16T15:28:54;101042.97;;;19.27;100.00
53651;BME280;39552;45.776;15.892;2022-10-16T15:33:09;101057.31;;;19.31;100.00
53651;BME280;39552;45.776;15.892;2022-10-16T15:35:17;101066.31;;;19.21;100.00
53651;BME280;39552;45.776;15.892;2022-10-16T15:41:26;101068.59;;;18.94;100.00
53651;BME280;39552;45.776;15.892;2022-10-16T15:43:59;101034.28;;;18.65;100.00
53651;BME280;39552;45.776;15.892;2022-10-16T15:46:27;101111.72;;;19.03;100.00
53651;BME280;39552;45.776;15.892;2022-10-16T15:49:08;101054.47;;;18.53;100.00
53651;BME280;39552;45.776;15.892;2022-10-16T15:51:45;101078.13;;;18.43;100.00
53651;BME280;39552;45.776;15.892;2022-10-16T15:54:12;101120.13;;;18.55;100.00
53651;BME280;39552;45.776;15.892;2022-10-16T15:56:40;101081.47;;;18.24;100.00
53651;BME280;39552;45.776;15.892;2022-10-16T15:59:07;101115.41;;;18.21;100.00